sensor_id;sensor_type;location;lat;lon;timestamp;P1;durP1;ratioP1;P2;durP2;ratioP2
44862;SDS011;30597;49.628;10.850;2022-09-09T00:01:08;1.00;;;0.90;;
44862;SDS011;30597;49.628;10.850;2022-09-09T00:06:28;1.03;;;0.90;;
44862;SDS011;30597;49.628;10.850;2022-09-09T00:09:11;0.90;;;0.77;;
44862;SDS011;30597;49.628;10.850;2022-09-09T00:11:47;0.90;;;0.70;;
44862;SDS011;30597;49.628;10.850;2022-09-09T00:14:37;1.00;;;0.70;;
44862;SDS011;30597;49.628;10.850;2022-09-09T00:20:09;1.53;;;0.90;;
44862;SDS011;30597;49.628;10.850;2022-09-09T00:22:48;1.20;;;0.90;;
44862;SDS011;30597;49.628;10.850;2022-09-09T00:25:26;0.93;;;0.83;;
44862;SDS011;30597;49.628;10.850;2022-09-09T00:27:59;0.93;;;0.83;;
44862;SDS011;30597;49.628;10.850;2022-09-09T00:30:26;1.00;;;0.90;;
44862;SDS011;30597;49.628;10.850;2022-09-09T00:33:00;1.50;;;0.83;;
44862;SDS011;30597;49.628;10.850;2022-09-09T00:35:30;3.60;;;1.13;;
44862;SDS011;30597;49.628;10.850;2022-09-09T00:38:15;1.33;;;1.00;;
44862;SDS011;30597;49.628;10.850;2022-09-09T00:43:46;1.23;;;1.00;;
44862;SDS011;30597;49.628;10.850;2022-09-09T00:57:43;1.40;;;1.00;;
44862;SDS011;30597;49.628;10.850;2022-09-09T01:00:24;1.53;;;1.00;;
44862;SDS011;30597;49.628;10.850;2022-09-09T01:14:19;1.17;;;1.07;;
44862;SDS011;30597;49.628;10.850;2022-09-09T01:16:56;2.70;;;0.90;;
44862;SDS011;30597;49.628;10.850;2022-09-09T01:19:27;1.30;;;0.73;;
44862;SDS011;30597;49.628;10.850;2022-09-09T01:22:09;0.90;;;0.80;;
44862;SDS011;30597;49.628;10.850;2022-09-09T01:27:48;1.37;;;1.13;;
44862;SDS011;30597;49.628;10.850;2022-09-09T01:30:16;1.13;;;1.00;;
44862;SDS011;30597;49.628;10.850;2022-09-09T01:32:50;2.13;;;1.93;;
44862;SDS011;30597;49.628;10.850;2022-09-09T01:37:55;2.63;;;1.10;;
44862;SDS011;30597;49.628;10.850;2022-09-09T01:40:21;2.90;;;1.13;;
44862;SDS011;30597;49.628;10.850;2022-09-09T01:42:47;0.83;;;0.80;;
44862;SDS011;30597;49.628;10.850;2022-09-09T01:45:13;1.00;;;0.80;;
44862;SDS011;30597;49.628;10.850;2022-09-09T01:47:39;1.33;;;0.90;;
44862;SDS011;30597;49.628;10.850;2022-09-09T01:50:05;0.70;;;0.70;;
44862;SDS011;30597;49.628;10.850;2022-09-09T01:52:36;0.80;;;0.70;;
44862;SDS011;30597;49.628;10.850;2022-09-09T01:55:02;0.97;;;0.87;;
44862;SDS011;30597;49.628;10.850;2022-09-09T01:57:39;1.23;;;0.77;;
44862;SDS011;30597;49.628;10.850;2022-09-09T02:00:19;1.87;;;0.90;;
44862;SDS011;30597;49.628;10.850;2022-09-09T02:05:18;1.13;;;0.93;;
44862;SDS011;30597;49.628;10.850;2022-09-09T02:08:06;1.33;;;1.07;;
44862;SDS011;30597;49.628;10.850;2022-09-09T02:10:53;1.00;;;0.90;;
44862;SDS011;30597;49.628;10.850;2022-09-09T02:13:25;0.70;;;0.70;;
44862;SDS011;30597;49.628;10.850;2022-09-09T02:18:30;1.27;;;0.83;;
44862;SDS011;30597;49.628;10.850;2022-09-09T02:21:00;1.23;;;0.73;;
44862;SDS011;30597;49.628;10.850;2022-09-09T02:23:28;1.53;;;1.00;;
44862;SDS011;30597;49.628;10.850;2022-09-09T02:25:54;3.80;;;0.80;;
44862;SDS011;30597;49.628;10.850;2022-09-09T02:28:23;0.90;;;0.73;;
44862;SDS011;30597;49.628;10.850;2022-09-09T02:30:52;1.17;;;0.80;;
44862;SDS011;30597;49.628;10.850;2022-09-09T02:33:24;0.77;;;0.73;;
44862;SDS011;30597;49.628;10.850;2022-09-09T02:35:52;1.00;;;0.90;;
44862;SDS011;30597;49.628;10.850;2022-09-09T02:38:21;0.83;;;0.67;;
44862;SDS011;30597;49.628;10.850;2022-09-09T02:40:51;1.87;;;1.27;;
44862;SDS011;30597;49.628;10.850;2022-09-09T02:43:17;1.10;;;0.90;;
44862;SDS011;30597;49.628;10.850;2022-09-09T02:45:55;0.70;;;0.60;;
44862;SDS011;30597;49.628;10.850;2022-09-09T02:48:31;2.03;;;0.93;;
44862;SDS011;30597;49.628;10.850;2022-09-09T02:51:26;0.90;;;0.80;;
44862;SDS011;30597;49.628;10.850;2022-09-09T02:53:59;2.20;;;0.97;;
44862;SDS011;30597;49.628;10.850;2022-09-09T02:56:42;1.47;;;0.80;;
44862;SDS011;30597;49.628;10.850;2022-09-09T02:59:15;2.00;;;0.80;;
44862;SDS011;30597;49.628;10.850;2022-09-09T03:01:41;1.20;;;0.83;;
44862;SDS011;30597;49.628;10.850;2022-09-09T03:04:07;1.27;;;0.80;;
44862;SDS011;30597;49.628;10.850;2022-09-09T03:06:32;1.00;;;1.00;;
44862;SDS011;30597;49.628;10.850;2022-09-09T03:08:58;1.07;;;0.97;;
44862;SDS011;30597;49.628;10.850;2022-09-09T03:11:25;1.73;;;0.80;;
44862;SDS011;30597;49.628;10.850;2022-09-09T03:13:52;1.40;;;1.00;;
44862;SDS011;30597;49.628;10.850;2022-09-09T03:16:19;0.83;;;0.77;;
44862;SDS011;30597;49.628;10.850;2022-09-09T03:18:46;1.10;;;0.80;;
44862;SDS011;30597;49.628;10.850;2022-09-09T03:21:12;1.00;;;0.90;;
44862;SDS011;30597;49.628;10.850;2022-09-09T03:23:37;0.80;;;0.80;;
44862;SDS011;30597;49.628;10.850;2022-09-09T03:26:03;0.90;;;0.80;;
44862;SDS011;30597;49.628;10.850;2022-09-09T03:28:28;0.93;;;0.90;;
44862;SDS011;30597;49.628;10.850;2022-09-09T03:31:03;1.10;;;1.00;;
44862;SDS011;30597;49.628;10.850;2022-09-09T03:33:30;0.80;;;0.80;;
44862;SDS011;30597;49.628;10.850;2022-09-09T03:35:56;2.03;;;0.80;;
44862;SDS011;30597;49.628;10.850;2022-09-09T03:38:25;0.90;;;0.60;;
44862;SDS011;30597;49.628;10.850;2022-09-09T03:40:51;1.20;;;0.80;;
44862;SDS011;30597;49.628;10.850;2022-09-09T03:43:22;1.47;;;1.20;;
44862;SDS011;30597;49.628;10.850;2022-09-09T03:45:49;1.17;;;0.97;;
44862;SDS011;30597;49.628;10.850;2022-09-09T03:48:15;0.80;;;0.60;;
44862;SDS011;30597;49.628;10.850;2022-09-09T03:50:48;1.00;;;0.80;;
44862;SDS011;30597;49.628;10.850;2022-09-09T03:53:16;2.53;;;0.97;;
44862;SDS011;30597;49.628;10.850;2022-09-09T03:55:47;0.87;;;0.80;;
44862;SDS011;30597;49.628;10.850;2022-09-09T03:58:19;0.80;;;0.60;;
44862;SDS011;30597;49.628;10.850;2022-09-09T04:00:59;1.03;;;0.93;;
44862;SDS011;30597;49.628;10.850;2022-09-09T04:03:26;0.80;;;0.70;;
44862;SDS011;30597;49.628;10.850;2022-09-09T04:05:52;1.20;;;0.87;;
44862;SDS011;30597;49.628;10.850;2022-09-09T04:08:18;0.83;;;0.83;;
44862;SDS011;30597;49.628;10.850;2022-09-09T04:10:45;0.80;;;0.70;;
44862;SDS011;30597;49.628;10.850;2022-09-09T04:13:12;1.20;;;1.00;;
44862;SDS011;30597;49.628;10.850;2022-09-09T04:15:40;1.67;;;0.90;;
44862;SDS011;30597;49.628;10.850;2022-09-09T04:18:06;1.33;;;0.90;;
44862;SDS011;30597;49.628;10.850;2022-09-09T04:20:31;1.17;;;0.70;;
44862;SDS011;30597;49.628;10.850;2022-09-09T04:22:57;3.00;;;0.80;;
44862;SDS011;30597;49.628;10.850;2022-09-09T04:25:23;1.77;;;0.97;;
44862;SDS011;30597;49.628;10.850;2022-09-09T04:27:58;0.90;;;0.80;;
44862;SDS011;30597;49.628;10.850;2022-09-09T04:30:24;0.90;;;0.90;;
44862;SDS011;30597;49.628;10.850;2022-09-09T04:32:50;1.87;;;1.07;;
44862;SDS011;30597;49.628;10.850;2022-09-09T04:35:16;1.00;;;0.80;;
44862;SDS011;30597;49.628;10.850;2022-09-09T04:37:42;1.10;;;0.70;;
44862;SDS011;30597;49.628;10.850;2022-09-09T04:40:08;1.20;;;1.00;;
44862;SDS011;30597;49.628;10.850;2022-09-09T04:42:36;1.10;;;0.83;;
44862;SDS011;30597;49.628;10.850;2022-09-09T04:45:03;1.67;;;0.80;;
44862;SDS011;30597;49.628;10.850;2022-09-09T04:47:30;1.00;;;0.70;;
44862;SDS011;30597;49.628;10.850;2022-09-09T04:49:55;1.10;;;0.90;;
44862;SDS011;30597;49.628;10.850;2022-09-09T04:52:21;1.43;;;0.90;;
44862;SDS011;30597;49.628;10.850;2022-09-09T04:54:47;0.60;;;0.60;;
44862;SDS011;30597;49.628;10.850;2022-09-09T04:57:13;2.37;;;0.90;;
44862;SDS011;30597;49.628;10.850;2022-09-09T04:59:38;0.93;;;0.83;;
44862;SDS011;30597;49.628;10.850;2022-09-09T05:02:04;1.33;;;1.17;;
44862;SDS011;30597;49.628;10.850;2022-09-09T05:04:30;1.80;;;1.13;;
44862;SDS011;30597;49.628;10.850;2022-09-09T05:06:57;1.90;;;1.37;;
44862;SDS011;30597;49.628;10.850;2022-09-09T05:09:23;1.40;;;1.30;;
44862;SDS011;30597;49.628;10.850;2022-09-09T05:11:49;1.57;;;1.47;;
44862;SDS011;30597;49.628;10.850;2022-09-09T05:14:14;4.40;;;1.53;;
44862;SDS011;30597;49.628;10.850;2022-09-09T05:16:40;1.57;;;1.47;;
44862;SDS011;30597;49.628;10.850;2022-09-09T05:19:05;1.80;;;1.63;;
44862;SDS011;30597;49.628;10.850;2022-09-09T05:21:33;2.00;;;1.90;;
44862;SDS011;30597;49.628;10.850;2022-09-09T05:23:59;2.90;;;1.73;;
44862;SDS011;30597;49.628;10.850;2022-09-09T05:26:28;3.00;;;1.90;;
44862;SDS011;30597;49.628;10.850;2022-09-09T05:28:54;2.60;;;2.40;;
44862;SDS011;30597;49.628;10.850;2022-09-09T05:31:20;5.63;;;2.33;;
44862;SDS011;30597;49.628;10.850;2022-09-09T05:33:46;1.83;;;1.63;;
44862;SDS011;30597;49.628;10.850;2022-09-09T05:36:18;3.77;;;2.37;;
44862;SDS011;30597;49.628;10.850;2022-09-09T05:38:45;8.40;;;7.40;;
44862;SDS011;30597;49.628;10.850;2022-09-09T05:41:11;6.17;;;5.57;;
44862;SDS011;30597;49.628;10.850;2022-09-09T05:43:41;7.47;;;6.30;;
44862;SDS011;30597;49.628;10.850;2022-09-09T05:46:13;6.67;;;6.07;;
44862;SDS011;30597;49.628;10.850;2022-09-09T05:48:44;6.30;;;5.10;;
44862;SDS011;30597;49.628;10.850;2022-09-09T05:51:23;5.87;;;5.23;;
44862;SDS011;30597;49.628;10.850;2022-09-09T05:53:51;7.43;;;4.90;;
44862;SDS011;30597;49.628;10.850;2022-09-09T05:56:21;7.07;;;5.20;;
44862;SDS011;30597;49.628;10.850;2022-09-09T05:58:50;5.47;;;4.60;;
44862;SDS011;30597;49.628;10.850;2022-09-09T06:01:20;4.97;;;4.57;;
44862;SDS011;30597;49.628;10.850;2022-09-09T06:03:51;5.30;;;4.83;;
44862;SDS011;30597;49.628;10.850;2022-09-09T06:06:18;8.33;;;5.07;;
44862;SDS011;30597;49.628;10.850;2022-09-09T06:08:51;6.60;;;4.67;;
44862;SDS011;30597;49.628;10.850;2022-09-09T06:11:23;6.53;;;5.87;;
44862;SDS011;30597;49.628;10.850;2022-09-09T06:13:51;5.57;;;5.07;;
44862;SDS011;30597;49.628;10.850;2022-09-09T06:16:19;9.27;;;5.13;;
44862;SDS011;30597;49.628;10.850;2022-09-09T06:18:48;6.53;;;5.10;;
44862;SDS011;30597;49.628;10.850;2022-09-09T06:21:18;5.80;;;5.20;;
44862;SDS011;30597;49.628;10.850;2022-09-09T06:23:49;5.17;;;4.67;;
44862;SDS011;30597;49.628;10.850;2022-09-09T06:26:22;5.10;;;4.57;;
44862;SDS011;30597;49.628;10.850;2022-09-09T06:28:53;5.13;;;4.63;;
44862;SDS011;30597;49.628;10.850;2022-09-09T06:31:23;8.83;;;5.10;;
44862;SDS011;30597;49.628;10.850;2022-09-09T06:33:51;5.10;;;4.60;;
44862;SDS011;30597;49.628;10.850;2022-09-09T06:36:23;5.83;;;4.77;;
44862;SDS011;30597;49.628;10.850;2022-09-09T06:38:55;5.17;;;4.67;;
44862;SDS011;30597;49.628;10.850;2022-09-09T06:41:23;5.73;;;5.23;;
44862;SDS011;30597;49.628;10.850;2022-09-09T06:43:54;5.07;;;4.63;;
44862;SDS011;30597;49.628;10.850;2022-09-09T06:46:24;4.47;;;4.03;;
44862;SDS011;30597;49.628;10.850;2022-09-09T06:48:56;6.10;;;5.13;;
44862;SDS011;30597;49.628;10.850;2022-09-09T06:51:24;5.37;;;4.87;;
44862;SDS011;30597;49.628;10.850;2022-09-09T06:53:56;5.47;;;4.80;;
44862;SDS011;30597;49.628;10.850;2022-09-09T06:56:27;5.30;;;4.80;;
44862;SDS011;30597;49.628;10.850;2022-09-09T06:58:55;4.70;;;4.23;;
44862;SDS011;30597;49.628;10.850;2022-09-09T07:01:24;5.33;;;4.83;;
44862;SDS011;30597;49.628;10.850;2022-09-09T07:03:52;5.13;;;4.73;;
44862;SDS011;30597;49.628;10.850;2022-09-09T07:06:26;5.43;;;4.57;;
44862;SDS011;30597;49.628;10.850;2022-09-09T07:08:54;5.03;;;4.63;;
44862;SDS011;30597;49.628;10.850;2022-09-09T07:11:21;5.40;;;4.43;;
44862;SDS011;30597;49.628;10.850;2022-09-09T07:13:50;5.53;;;5.03;;
44862;SDS011;30597;49.628;10.850;2022-09-09T07:16:16;5.00;;;4.50;;
44862;SDS011;30597;49.628;10.850;2022-09-09T07:18:44;5.17;;;4.67;;
44862;SDS011;30597;49.628;10.850;2022-09-09T07:21:10;8.03;;;5.20;;
44862;SDS011;30597;49.628;10.850;2022-09-09T07:23:37;4.77;;;4.37;;
44862;SDS011;30597;49.628;10.850;2022-09-09T07:26:09;5.43;;;4.33;;
44862;SDS011;30597;49.628;10.850;2022-09-09T07:28:37;5.17;;;4.57;;
44862;SDS011;30597;49.628;10.850;2022-09-09T07:31:04;4.67;;;4.17;;
44862;SDS011;30597;49.628;10.850;2022-09-09T07:33:31;4.77;;;4.30;;
44862;SDS011;30597;49.628;10.850;2022-09-09T07:36:08;4.73;;;4.33;;
44862;SDS011;30597;49.628;10.850;2022-09-09T07:38:41;4.30;;;3.90;;
44862;SDS011;30597;49.628;10.850;2022-09-09T07:41:12;4.60;;;4.23;;
44862;SDS011;30597;49.628;10.850;2022-09-09T07:43:40;7.33;;;4.53;;
44862;SDS011;30597;49.628;10.850;2022-09-09T07:46:07;4.80;;;4.30;;
44862;SDS011;30597;49.628;10.850;2022-09-09T07:48:36;5.40;;;3.90;;
44862;SDS011;30597;49.628;10.850;2022-09-09T07:51:09;5.00;;;4.60;;
44862;SDS011;30597;49.628;10.850;2022-09-09T07:53:37;4.27;;;3.97;;
44862;SDS011;30597;49.628;10.850;2022-09-09T07:56:05;4.10;;;3.70;;
44862;SDS011;30597;49.628;10.850;2022-09-09T07:58:36;5.37;;;4.20;;
44862;SDS011;30597;49.628;10.850;2022-09-09T08:01:10;5.13;;;4.67;;
44862;SDS011;30597;49.628;10.850;2022-09-09T08:03:38;4.67;;;4.27;;
44862;SDS011;30597;49.628;10.850;2022-09-09T08:06:05;4.63;;;4.17;;
44862;SDS011;30597;49.628;10.850;2022-09-09T08:08:32;4.43;;;4.03;;
44862;SDS011;30597;49.628;10.850;2022-09-09T08:11:06;3.57;;;3.27;;
44862;SDS011;30597;49.628;10.850;2022-09-09T08:13:37;4.40;;;4.00;;
44862;SDS011;30597;49.628;10.850;2022-09-09T08:16:05;4.97;;;3.87;;
44862;SDS011;30597;49.628;10.850;2022-09-09T08:18:32;3.67;;;3.33;;
44862;SDS011;30597;49.628;10.850;2022-09-09T08:21:15;4.53;;;4.03;;
44862;SDS011;30597;49.628;10.850;2022-09-09T08:23:43;3.90;;;3.60;;
44862;SDS011;30597;49.628;10.850;2022-09-09T08:26:15;4.60;;;4.10;;
44862;SDS011;30597;49.628;10.850;2022-09-09T08:28:42;3.90;;;3.50;;
44862;SDS011;30597;49.628;10.850;2022-09-09T08:31:09;3.90;;;3.60;;
44862;SDS011;30597;49.628;10.850;2022-09-09T08:33:35;3.63;;;3.33;;
44862;SDS011;30597;49.628;10.850;2022-09-09T08:36:03;4.93;;;4.47;;
44862;SDS011;30597;49.628;10.850;2022-09-09T08:38:30;4.37;;;3.50;;
44862;SDS011;30597;49.628;10.850;2022-09-09T08:40:58;4.93;;;4.20;;
44862;SDS011;30597;49.628;10.850;2022-09-09T08:43:34;4.33;;;3.50;;
44862;SDS011;30597;49.628;10.850;2022-09-09T08:46:03;4.13;;;3.80;;
44862;SDS011;30597;49.628;10.850;2022-09-09T08:48:55;4.03;;;3.70;;
44862;SDS011;30597;49.628;10.850;2022-09-09T08:51:31;4.13;;;3.83;;
44862;SDS011;30597;49.628;10.850;2022-09-09T08:53:59;3.40;;;3.10;;
44862;SDS011;30597;49.628;10.850;2022-09-09T08:56:30;4.50;;;4.10;;
44862;SDS011;30597;49.628;10.850;2022-09-09T08:58:59;6.10;;;4.27;;
44862;SDS011;30597;49.628;10.850;2022-09-09T09:01:35;5.03;;;3.90;;
44862;SDS011;30597;49.628;10.850;2022-09-09T09:04:29;4.27;;;3.87;;
44862;SDS011;30597;49.628;10.850;2022-09-09T09:07:18;3.83;;;3.50;;
44862;SDS011;30597;49.628;10.850;2022-09-09T09:10:10;3.63;;;3.33;;
44862;SDS011;30597;49.628;10.850;2022-09-09T09:12:47;4.07;;;3.70;;
44862;SDS011;30597;49.628;10.850;2022-09-09T09:15:19;4.10;;;3.60;;
44862;SDS011;30597;49.628;10.850;2022-09-09T09:17:48;4.20;;;3.80;;
44862;SDS011;30597;49.628;10.850;2022-09-09T09:20:14;3.90;;;3.60;;
44862;SDS011;30597;49.628;10.850;2022-09-09T09:28:10;4.07;;;3.67;;
44862;SDS011;30597;49.628;10.850;2022-09-09T09:30:51;3.70;;;3.27;;
44862;SDS011;30597;49.628;10.850;2022-09-09T09:36:34;3.33;;;3.03;;
44862;SDS011;30597;49.628;10.850;2022-09-09T09:39:07;6.83;;;4.23;;
44862;SDS011;30597;49.628;10.850;2022-09-09T09:41:38;4.50;;;4.00;;
44862;SDS011;30597;49.628;10.850;2022-09-09T09:47:04;3.50;;;3.20;;
44862;SDS011;30597;49.628;10.850;2022-09-09T09:49:36;3.80;;;3.50;;
44862;SDS011;30597;49.628;10.850;2022-09-09T09:52:05;3.50;;;3.17;;
44862;SDS011;30597;49.628;10.850;2022-09-09T09:54:39;3.50;;;3.30;;
44862;SDS011;30597;49.628;10.850;2022-09-09T09:57:09;3.50;;;3.20;;
44862;SDS011;30597;49.628;10.850;2022-09-09T09:59:38;5.47;;;3.40;;
44862;SDS011;30597;49.628;10.850;2022-09-09T10:02:21;3.50;;;3.20;;
44862;SDS011;30597;49.628;10.850;2022-09-09T10:10:38;3.40;;;3.10;;
44862;SDS011;30597;49.628;10.850;2022-09-09T10:16:48;3.60;;;3.30;;
44862;SDS011;30597;49.628;10.850;2022-09-09T10:22:04;4.00;;;3.70;;
44862;SDS011;30597;49.628;10.850;2022-09-09T10:24:52;4.17;;;3.77;;
44862;SDS011;30597;49.628;10.850;2022-09-09T10:27:35;3.60;;;3.30;;
44862;SDS011;30597;49.628;10.850;2022-09-09T10:30:47;3.27;;;2.97;;
44862;SDS011;30597;49.628;10.850;2022-09-09T10:35:44;3.47;;;3.13;;
44862;SDS011;30597;49.628;10.850;2022-09-09T10:49:18;3.20;;;2.90;;
44862;SDS011;30597;49.628;10.850;2022-09-09T10:52:16;3.40;;;3.10;;
44862;SDS011;30597;49.628;10.850;2022-09-09T10:57:50;3.20;;;2.90;;
44862;SDS011;30597;49.628;10.850;2022-09-09T11:00:40;2.93;;;2.63;;
44862;SDS011;30597;49.628;10.850;2022-09-09T11:03:21;3.57;;;3.27;;
44862;SDS011;30597;49.628;10.850;2022-09-09T11:05:51;4.23;;;3.73;;
44862;SDS011;30597;49.628;10.850;2022-09-09T11:11:01;3.40;;;3.10;;
44862;SDS011;30597;49.628;10.850;2022-09-09T11:19:16;3.73;;;3.37;;
44862;SDS011;30597;49.628;10.850;2022-09-09T11:21:46;3.43;;;2.97;;
44862;SDS011;30597;49.628;10.850;2022-09-09T11:35:21;3.57;;;3.23;;
44862;SDS011;30597;49.628;10.850;2022-09-09T11:38:18;3.27;;;3.00;;
44862;SDS011;30597;49.628;10.850;2022-09-09T11:41:02;3.47;;;3.17;;
44862;SDS011;30597;49.628;10.850;2022-09-09T11:46:05;3.37;;;3.00;;
44862;SDS011;30597;49.628;10.850;2022-09-09T11:48:34;3.53;;;3.23;;
44862;SDS011;30597;49.628;10.850;2022-09-09T11:53:35;2.67;;;2.47;;
44862;SDS011;30597;49.628;10.850;2022-09-09T11:56:13;3.33;;;3.03;;
44862;SDS011;30597;49.628;10.850;2022-09-09T11:59:02;2.73;;;2.53;;
44862;SDS011;30597;49.628;10.850;2022-09-09T12:01:37;2.93;;;2.70;;
44862;SDS011;30597;49.628;10.850;2022-09-09T12:09:45;2.80;;;2.60;;
44862;SDS011;30597;49.628;10.850;2022-09-09T12:17:23;3.00;;;2.70;;
44862;SDS011;30597;49.628;10.850;2022-09-09T12:25:31;4.63;;;3.47;;
44862;SDS011;30597;49.628;10.850;2022-09-09T12:28:18;3.83;;;2.97;;
44862;SDS011;30597;49.628;10.850;2022-09-09T12:31:07;2.93;;;2.63;;
44862;SDS011;30597;49.628;10.850;2022-09-09T12:33:48;2.80;;;2.60;;
44862;SDS011;30597;49.628;10.850;2022-09-09T12:36:16;3.03;;;2.83;;
44862;SDS011;30597;49.628;10.850;2022-09-09T12:38:51;3.13;;;2.83;;
44862;SDS011;30597;49.628;10.850;2022-09-09T12:41:21;2.77;;;2.57;;
44862;SDS011;30597;49.628;10.850;2022-09-09T12:44:03;3.27;;;2.97;;
44862;SDS011;30597;49.628;10.850;2022-09-09T12:52:02;2.90;;;2.70;;
44862;SDS011;30597;49.628;10.850;2022-09-09T12:54:33;3.83;;;2.97;;
44862;SDS011;30597;49.628;10.850;2022-09-09T12:57:00;3.13;;;2.53;;
44862;SDS011;30597;49.628;10.850;2022-09-09T12:59:36;3.30;;;3.00;;
44862;SDS011;30597;49.628;10.850;2022-09-09T13:02:23;3.77;;;3.47;;
44862;SDS011;30597;49.628;10.850;2022-09-09T13:04:51;3.57;;;2.90;;
44862;SDS011;30597;49.628;10.850;2022-09-09T13:07:18;3.47;;;3.20;;
44862;SDS011;30597;49.628;10.850;2022-09-09T13:09:45;2.43;;;2.23;;
44862;SDS011;30597;49.628;10.850;2022-09-09T13:12:16;3.23;;;2.90;;
44862;SDS011;30597;49.628;10.850;2022-09-09T13:14:46;2.77;;;2.57;;
44862;SDS011;30597;49.628;10.850;2022-09-09T13:17:25;2.80;;;2.60;;
44862;SDS011;30597;49.628;10.850;2022-09-09T13:19:55;3.10;;;2.90;;
44862;SDS011;30597;49.628;10.850;2022-09-09T13:27:38;3.50;;;3.20;;
44862;SDS011;30597;49.628;10.850;2022-09-09T13:35:34;6.37;;;3.77;;
44862;SDS011;30597;49.628;10.850;2022-09-09T13:38:12;3.30;;;2.63;;
44862;SDS011;30597;49.628;10.850;2022-09-09T13:40:39;3.27;;;2.97;;
44862;SDS011;30597;49.628;10.850;2022-09-09T13:43:05;3.60;;;3.30;;
44862;SDS011;30597;49.628;10.850;2022-09-09T13:45:52;3.50;;;3.20;;
44862;SDS011;30597;49.628;10.850;2022-09-09T13:48:25;3.13;;;2.90;;
44862;SDS011;30597;49.628;10.850;2022-09-09T13:50:55;3.80;;;3.43;;
44862;SDS011;30597;49.628;10.850;2022-09-09T13:53:22;3.70;;;3.40;;
44862;SDS011;30597;49.628;10.850;2022-09-09T13:55:48;3.80;;;3.00;;
44862;SDS011;30597;49.628;10.850;2022-09-09T13:58:15;3.77;;;3.20;;
44862;SDS011;30597;49.628;10.850;2022-09-09T14:00:43;4.23;;;3.03;;
44862;SDS011;30597;49.628;10.850;2022-09-09T14:03:09;3.03;;;2.67;;
44862;SDS011;30597;49.628;10.850;2022-09-09T14:05:37;3.30;;;3.00;;
44862;SDS011;30597;49.628;10.850;2022-09-09T14:08:03;3.53;;;3.23;;
44862;SDS011;30597;49.628;10.850;2022-09-09T14:10:30;3.80;;;3.50;;
44862;SDS011;30597;49.628;10.850;2022-09-09T14:12:57;3.73;;;3.30;;
44862;SDS011;30597;49.628;10.850;2022-09-09T14:15:23;4.43;;;4.00;;
44862;SDS011;30597;49.628;10.850;2022-09-09T14:17:52;4.07;;;3.70;;
44862;SDS011;30597;49.628;10.850;2022-09-09T14:20:17;3.80;;;3.40;;
44862;SDS011;30597;49.628;10.850;2022-09-09T14:22:44;3.47;;;3.17;;
44862;SDS011;30597;49.628;10.850;2022-09-09T14:25:10;4.07;;;3.60;;
44862;SDS011;30597;49.628;10.850;2022-09-09T14:27:38;3.73;;;3.33;;
44862;SDS011;30597;49.628;10.850;2022-09-09T14:30:05;3.37;;;3.07;;
44862;SDS011;30597;49.628;10.850;2022-09-09T14:32:35;3.60;;;3.30;;
44862;SDS011;30597;49.628;10.850;2022-09-09T14:35:12;3.17;;;2.90;;
44862;SDS011;30597;49.628;10.850;2022-09-09T14:37:38;3.73;;;3.30;;
44862;SDS011;30597;49.628;10.850;2022-09-09T14:40:07;3.47;;;3.17;;
44862;SDS011;30597;49.628;10.850;2022-09-09T14:42:33;3.67;;;3.37;;
44862;SDS011;30597;49.628;10.850;2022-09-09T14:44:59;3.07;;;2.87;;
44862;SDS011;30597;49.628;10.850;2022-09-09T14:47:30;3.10;;;2.57;;
44862;SDS011;30597;49.628;10.850;2022-09-09T14:49:59;3.23;;;2.93;;
44862;SDS011;30597;49.628;10.850;2022-09-09T14:52:26;2.77;;;2.50;;
44862;SDS011;30597;49.628;10.850;2022-09-09T14:54:51;2.80;;;2.60;;
44862;SDS011;30597;49.628;10.850;2022-09-09T14:57:17;3.50;;;3.20;;
44862;SDS011;30597;49.628;10.850;2022-09-09T14:59:45;3.30;;;3.00;;
44862;SDS011;30597;49.628;10.850;2022-09-09T15:02:20;3.40;;;2.73;;
44862;SDS011;30597;49.628;10.850;2022-09-09T15:04:52;2.90;;;2.60;;
44862;SDS011;30597;49.628;10.850;2022-09-09T15:07:26;4.00;;;2.80;;
44862;SDS011;30597;49.628;10.850;2022-09-09T15:09:56;3.53;;;2.80;;
44862;SDS011;30597;49.628;10.850;2022-09-09T15:12:23;3.93;;;2.90;;
44862;SDS011;30597;49.628;10.850;2022-09-09T15:14:53;3.37;;;3.07;;
44862;SDS011;30597;49.628;10.850;2022-09-09T15:17:20;3.17;;;2.87;;
44862;SDS011;30597;49.628;10.850;2022-09-09T15:19:45;3.30;;;3.00;;
44862;SDS011;30597;49.628;10.850;2022-09-09T15:22:11;3.47;;;3.17;;
44862;SDS011;30597;49.628;10.850;2022-09-09T15:24:37;3.27;;;2.97;;
44862;SDS011;30597;49.628;10.850;2022-09-09T15:27:03;3.03;;;2.73;;
44862;SDS011;30597;49.628;10.850;2022-09-09T15:29:28;2.97;;;2.53;;
44862;SDS011;30597;49.628;10.850;2022-09-09T15:31:54;3.40;;;3.10;;
44862;SDS011;30597;49.628;10.850;2022-09-09T15:34:20;3.40;;;2.90;;
44862;SDS011;30597;49.628;10.850;2022-09-09T15:36:46;2.97;;;2.77;;
44862;SDS011;30597;49.628;10.850;2022-09-09T15:39:14;4.17;;;2.80;;
44862;SDS011;30597;49.628;10.850;2022-09-09T15:41:44;3.23;;;2.93;;
44862;SDS011;30597;49.628;10.850;2022-09-09T15:44:27;2.90;;;2.70;;
44862;SDS011;30597;49.628;10.850;2022-09-09T15:46:55;3.17;;;2.93;;
44862;SDS011;30597;49.628;10.850;2022-09-09T15:49:25;3.00;;;2.80;;
44862;SDS011;30597;49.628;10.850;2022-09-09T15:51:53;2.90;;;2.70;;
44862;SDS011;30597;49.628;10.850;2022-09-09T15:54:23;3.23;;;2.93;;
44862;SDS011;30597;49.628;10.850;2022-09-09T15:57:00;3.40;;;3.00;;
44862;SDS011;30597;49.628;10.850;2022-09-09T15:59:29;3.00;;;2.70;;
44862;SDS011;30597;49.628;10.850;2022-09-09T16:01:55;3.30;;;3.00;;
44862;SDS011;30597;49.628;10.850;2022-09-09T16:04:22;3.27;;;2.97;;
44862;SDS011;30597;49.628;10.850;2022-09-09T16:06:50;2.97;;;2.73;;
44862;SDS011;30597;49.628;10.850;2022-09-09T16:09:20;3.30;;;3.00;;
44862;SDS011;30597;49.628;10.850;2022-09-09T16:11:49;3.57;;;3.00;;
44862;SDS011;30597;49.628;10.850;2022-09-09T16:14:14;3.10;;;2.90;;
44862;SDS011;30597;49.628;10.850;2022-09-09T16:16:40;3.20;;;2.90;;
44862;SDS011;30597;49.628;10.850;2022-09-09T16:19:07;3.90;;;3.60;;
44862;SDS011;30597;49.628;10.850;2022-09-09T16:21:36;3.90;;;3.50;;
44862;SDS011;30597;49.628;10.850;2022-09-09T16:24:05;4.07;;;2.90;;
44862;SDS011;30597;49.628;10.850;2022-09-09T16:26:32;3.07;;;2.77;;
44862;SDS011;30597;49.628;10.850;2022-09-09T16:28:59;3.23;;;2.83;;
44862;SDS011;30597;49.628;10.850;2022-09-09T16:31:26;4.17;;;3.20;;
44862;SDS011;30597;49.628;10.850;2022-09-09T16:33:53;3.50;;;3.20;;
44862;SDS011;30597;49.628;10.850;2022-09-09T16:36:21;3.40;;;3.10;;
44862;SDS011;30597;49.628;10.850;2022-09-09T16:38:56;4.20;;;3.80;;
44862;SDS011;30597;49.628;10.850;2022-09-09T16:41:25;3.20;;;2.70;;
44862;SDS011;30597;49.628;10.850;2022-09-09T16:44:04;3.73;;;3.43;;
44862;SDS011;30597;49.628;10.850;2022-09-09T16:46:59;3.60;;;3.30;;
44862;SDS011;30597;49.628;10.850;2022-09-09T16:49:28;3.83;;;3.47;;
44862;SDS011;30597;49.628;10.850;2022-09-09T16:52:32;3.27;;;3.07;;
44862;SDS011;30597;49.628;10.850;2022-09-09T16:54:59;3.60;;;3.20;;
44862;SDS011;30597;49.628;10.850;2022-09-09T16:57:25;3.90;;;3.50;;
44862;SDS011;30597;49.628;10.850;2022-09-09T16:59:53;4.10;;;3.50;;
44862;SDS011;30597;49.628;10.850;2022-09-09T17:02:24;3.60;;;3.30;;
44862;SDS011;30597;49.628;10.850;2022-09-09T17:05:06;3.77;;;3.27;;
44862;SDS011;30597;49.628;10.850;2022-09-09T17:07:36;4.00;;;3.57;;
44862;SDS011;30597;49.628;10.850;2022-09-09T17:10:05;3.90;;;3.60;;
44862;SDS011;30597;49.628;10.850;2022-09-09T17:12:38;3.20;;;2.90;;
44862;SDS011;30597;49.628;10.850;2022-09-09T17:15:44;3.53;;;3.23;;